Aeroporto :
LOGIN :

Iscrizione | Disclaimer

   EN    FR    IT 

 










Sommario :    VFR   VFR Marginale   IFR   IFR Intensivo   IFR Molto Intensivo
Visibilità : 
Base nubi : 
>= 8 km
>= 3000ft
5 / 8 km
1000 / 3000 ft
1500m / 5 km
500 / 1000 ft
800 / 1500m
200 / 500 ft
< 800m
< 200 ft
Simboli :   Temporali  Nebbia  Neve Forte  Precipitazioni Forti  Vento > 20 kt
SIGMETs :   Varie  Temporali  Ghiacco  Turbolenza  Onda orograficha  Ceneri Vulcaniche






- Altitudine del aeroporto : 137 ft


LIPS - Istrana AFB Treviso

ULTIMO METAR :
  • 200055Z /////KT 9999 SCT060 10/09 Q1015 RMK SCT VIS MIN 9999 WIND THR26 32002KT WIND THR08 33003KT BLU

METARs OBSOLETI :
  • 192355Z /////KT 9999 BKN060 10/09 Q1015 RMK BKN VIS MIN 9999 WIND THR26 35006KT WIND THR08 02006KT BLU
  • 192255Z /////KT 9999 BKN050 10/09 Q1015

TAF TAF LIPS
Valido dal 20 a 00 ore il 20 a 09 ore UTC


192300Z 2000/2009 VRB05KT 9999 BKN070
TEMPO 2000/2006 5000 BR



MetMap, La meteo Aeronautica in un colpo d'occhio ! - Copyright ORBIFLY Dicembre 2007 - Disclaimer

ORBIFLY MET'MAP TEAM :

Programmazione e sviluppo : Alexandra Zaïnal
Concezione e sviluppo : Baudouin d'Aumeries
Co-Programmazione e sviluppo : Marc-Olivier Méhu
Supporto tecnico e logistico : Manuel Goepfert
Aiuto per la traduzione : Arnaldo La Scala

Contatto : metmap@orbifly.com




FONTI E CREDITI :

   NOAA